메인 페이지
METAR-TAF:

METAR-TAF

공항 :

에센보아 국제공항

앙카라 Esenboğa, 터키

위도: 40-07N, 경도: 032-59E, 고도: 953m

현재 날씨관측

예보는 17분 전, 22:20시(UTC)에 발표되었습니다.
6kt
온도 15°C
습도 77%
기압 1012 hPa
시정 10km 이상
고도 4000ft 상공 구름 보통

METAR: LTAC 182220Z 36006KT 9999 SCT040 15/11 Q1012 NOSIG RMK RWY21L 36004KT 330V030 RWY03L 34004KT RWY21R 35005KT

시각: 01:37 (22:37 UTC)

예보

예보는 37분 전, 22:00시(UTC)에 발표되었습니다.
예보 대상 시간: 18일 22시부터 19일 18시까지 (UTC)
여러 방향의 바람 2kt
시정 10km 이상
고도 4000ft 상공 구름 보통
일시적
19일 14시부터 19일 18시까지 (UTC)
15kt, 순간 최대 풍속 25kt
고도 2500ft 상공 구름 조금, 적란운.
고도 3000ft 상공 구름 많음
뇌우, 약한비

TAF: LTAC 182200Z 1822/1918 VRB02KT 9999 SCT040 TEMPO 1914/1918 17015G25KT -TSRA FEW025CB BKN030

4,000개 이상의 공항 관측 자료 및 예보 (METAR 및 TAF 보고).

지도상에서 검색 가능한 기상관측소가 노란 점과 빨간 점으로 표시되어 있습니다.

기상관측소 명을 보려면 표시 위로 마우스를 이동하세요.

날씨 관측과 예보를 보려면 클릭하세요.

지도 변경 : 확대하려면 엑스 표시가 있는 녹색 버튼, 축소하려면 빼기 표시가 있는 녹색 버튼, 다음 페이지의 지도를 보려면 녹색 화살표를 클릭하세요.


METAR-TAF: